Mission Square, Washington
Current Conditions -  °F | °C
As of 10:55 PM on Friday 26 Dec 2014 (Local Time) from KEAT Reporting Station
Clear Clear  
Wind Chill: 31°   Ceiling: Unl
Heat Index: 31°   Visibility: 10mi
Dew Point: 24°   Wind: 0mph
Humidity: 76%   Direction: NA
Pressure: 30.27"   Gusts: NA
Location:  47.3635°N, 120.348°W
Report Text: KEAT 270655Z AUTO 00000KT 10SM CLR M01/M04 A3027 RMK AO2 SLP261 T10061044
Loading
Personal Weather Stations






























Interactive Weather Map New forecast layout! Learn more

10-Day Weather Forecast

Advertisements
Track Severe Weather on mobile